Time;durP1;ratioP1;P1;durP2;ratioP2;P2;SDS_P1;SDS_P2;PMS_P1;PMS_P2;Temp;Humidity;BMP_temperature;BMP_pressure;BME280_temperature;BME280_humidity;BME280_pressure;Samples;Min_cycle;Max_cycle;Signal;HPM_P1;HPM_P2
2023/09/26 00:01:27;;;;;;;5.40;4.90;;;;;;;10.08;100.00;101801.13;5061830;28;20032;-86
2023/09/26 00:03:52;;;;;;;6.35;5.25;;;;;;;10.04;100.00;101788.19;5085061;28;20028;-87
2023/09/26 00:06:22;;;;;;;6.03;4.60;;;;;;;10.04;100.00;101801.53;5063816;28;20028;-87
2023/09/26 00:08:54;;;;;;;5.60;4.75;;;;;;;10.06;100.00;101797.75;5056774;28;20029;-87
2023/09/26 00:11:20;;;;;;;6.60;5.40;;;;;;;10.00;100.00;101810.81;5065624;28;20067;-85
2023/09/26 00:13:48;;;;;;;5.45;4.32;;;;;;;9.96;100.00;101796.88;5061476;28;20480;-87
2023/09/26 00:16:13;;;;;;;7.53;5.38;;;;;;;9.95;100.00;101803.19;5056117;28;20064;-88
2023/09/26 00:18:40;;;;;;;4.88;4.22;;;;;;;9.91;100.00;101815.09;5071416;28;20250;-87
2023/09/26 00:21:12;;;;;;;7.00;4.85;;;;;;;9.90;100.00;101811.59;5083318;28;20024;-87
2023/09/26 00:23:37;;;;;;;7.43;5.75;;;;;;;9.86;100.00;101803.97;5068676;28;20033;-87
2023/09/26 00:26:07;;;;;;;7.33;5.37;;;;;;;9.82;100.00;101805.22;5066516;28;20186;-87
2023/09/26 00:28:32;;;;;;;12.45;6.22;;;;;;;9.80;100.00;101807.16;5073685;28;20488;-86
2023/09/26 00:31:03;;;;;;;7.90;5.28;;;;;;;9.75;100.00;101798.72;5064217;28;20025;-88
2023/09/26 00:33:28;;;;;;;8.85;5.22;;;;;;;9.77;100.00;101802.09;5068461;28;20056;-88
2023/09/26 00:35:54;;;;;;;10.13;5.60;;;;;;;9.72;100.00;101798.00;5066312;28;20020;-87
2023/09/26 00:38:19;;;;;;;5.00;4.50;;;;;;;9.69;100.00;101790.28;5070830;28;20139;-85
2023/09/26 00:40:44;;;;;;;8.00;4.63;;;;;;;9.72;100.00;101800.66;5058930;28;20119;-85
2023/09/26 00:43:20;;;;;;;5.67;5.03;;;;;;;9.71;100.00;101801.63;5088294;28;20547;-86
2023/09/26 00:45:50;;;;;;;6.63;5.22;;;;;;;9.66;100.00;101806.50;5064617;28;20402;-87
2023/09/26 00:48:16;;;;;;;8.32;5.55;;;;;;;9.65;100.00;101814.66;5068236;28;20051;-87
2023/09/26 00:50:43;;;;;;;7.05;5.25;;;;;;;9.64;100.00;101810.28;5088294;28;20026;-86
2023/09/26 00:53:09;;;;;;;7.20;5.05;;;;;;;9.58;100.00;101805.50;5087681;28;20044;-84
2023/09/26 00:55:35;;;;;;;9.77;6.77;;;;;;;9.56;100.00;101805.63;5070439;28;20123;-85
2023/09/26 00:58:02;;;;;;;8.80;4.67;;;;;;;9.52;100.00;101801.50;5083021;28;20043;-87
2023/09/26 01:00:28;;;;;;;8.27;6.00;;;;;;;9.51;100.00;101800.66;5088090;28;20032;-87
2023/09/26 01:02:54;;;;;;;6.43;4.97;;;;;;;9.59;100.00;101804.50;5087810;28;20433;-86
2023/09/26 01:05:20;;;;;;;8.40;4.55;;;;;;;9.59;100.00;101808.00;5059051;28;20040;-87
2023/09/26 01:07:46;;;;;;;8.03;5.37;;;;;;;9.56;100.00;101805.63;5073722;28;20065;-86
2023/09/26 01:10:12;;;;;;;7.25;5.57;;;;;;;9.60;100.00;101825.72;5068191;28;20502;-86
2023/09/26 01:12:39;;;;;;;7.38;5.78;;;;;;;9.54;100.00;101834.22;5055016;28;20023;-86
2023/09/26 01:15:06;;;;;;;5.80;4.97;;;;;;;9.51;100.00;101823.81;5057986;28;20079;-84
2023/09/26 01:17:32;;;;;;;5.57;4.70;;;;;;;9.48;100.00;101818.72;5079444;28;20086;-87
2023/09/26 01:19:59;;;;;;;8.25;5.32;;;;;;;9.48;100.00;101824.94;5065569;28;20093;-87
2023/09/26 01:22:27;;;;;;;6.00;4.40;;;;;;;9.41;100.00;101801.56;5086145;28;20036;-86
2023/09/26 01:24:52;;;;;;;5.65;4.60;;;;;;;9.43;100.00;101815.63;5078002;28;20477;-86
2023/09/26 01:27:18;;;;;;;8.73;5.75;;;;;;;9.44;100.00;101815.50;5068069;28;20036;-88
2023/09/26 01:29:46;;;;;;;6.97;5.15;;;;;;;9.43;100.00;101826.28;5077988;28;20115;-87
2023/09/26 01:32:11;;;;;;;8.90;5.00;;;;;;;9.37;100.00;101810.81;5057619;28;20021;-87
2023/09/26 01:34:37;;;;;;;5.70;4.95;;;;;;;9.34;100.00;101805.72;5073753;28;20059;-87
2023/09/26 01:37:02;;;;;;;5.93;4.47;;;;;;;9.35;100.00;101818.94;5072069;28;20133;-86
2023/09/26 01:39:30;;;;;;;8.27;5.13;;;;;;;9.29;100.00;101814.97;5077746;28;20131;-86
2023/09/26 01:41:56;;;;;;;6.55;5.35;;;;;;;9.26;100.00;101809.88;5089705;28;20020;-84
2023/09/26 01:44:21;;;;;;;7.15;5.85;;;;;;;9.21;100.00;101796.09;5086630;28;20029;-87
2023/09/26 01:46:47;;;;;;;5.45;4.30;;;;;;;9.20;100.00;101794.41;5072460;28;20293;-86
2023/09/26 01:49:12;;;;;;;6.75;5.97;;;;;;;9.18;100.00;101796.38;5070147;28;20376;-85
2023/09/26 01:51:38;;;;;;;7.40;5.27;;;;;;;9.21;100.00;101813.91;5077263;28;20056;-87
2023/09/26 01:54:04;;;;;;;7.50;5.85;;;;;;;9.15;100.00;101796.59;5071936;28;20009;-88
2023/09/26 01:56:32;;;;;;;7.18;5.30;;;;;;;9.18;100.00;101817.69;5072145;28;20070;-85
2023/09/26 01:58:57;;;;;;;6.50;5.25;;;;;;;9.11;100.00;101802.31;5091123;28;20039;-86
2023/09/26 02:01:22;;;;;;;7.20;6.07;;;;;;;9.11;100.00;101800.50;5088840;28;20027;-87
2023/09/26 02:03:48;;;;;;;9.23;6.53;;;;;;;9.19;100.00;101823.84;5090518;28;20043;-87
2023/09/26 02:06:13;;;;;;;6.33;5.13;;;;;;;9.11;100.00;101810.28;5089932;28;20127;-87
2023/09/26 02:08:38;;;;;;;6.40;5.10;;;;;;;9.02;100.00;101791.47;5063357;28;20380;-87
2023/09/26 02:11:04;;;;;;;6.23;5.23;;;;;;;9.00;100.00;101787.22;5081965;28;20435;-86
2023/09/26 02:13:29;;;;;;;8.60;5.53;;;;;;;8.98;100.00;101779.34;5071067;28;20090;-86
2023/09/26 02:15:54;;;;;;;6.63;5.03;;;;;;;8.97;100.00;101772.34;5057431;28;20478;-86
2023/09/26 02:18:20;;;;;;;8.77;6.97;;;;;;;9.02;100.00;101769.31;5082662;28;20044;-86
2023/09/26 02:20:45;;;;;;;10.17;8.17;;;;;;;9.13;100.00;101806.56;5080666;28;20028;-86
2023/09/26 02:23:11;;;;;;;9.60;6.70;;;;;;;9.13;100.00;101827.88;5090660;28;20418;-87
2023/09/26 02:25:36;;;;;;;12.00;6.67;;;;;;;8.98;100.00;101797.16;5088460;28;20088;-87
2023/09/26 02:28:01;;;;;;;8.90;6.23;;;;;;;8.90;100.00;101802.25;5090061;28;20088;-86
2023/09/26 02:30:31;;;;;;;7.63;6.03;;;;;;;8.87;100.00;101798.03;5089941;28;20447;-86
2023/09/26 02:32:56;;;;;;;6.72;5.82;;;;;;;8.82;100.00;101786.91;5065778;28;20037;-85
2023/09/26 02:35:21;;;;;;;10.40;7.30;;;;;;;8.88;100.00;101797.91;5083827;28;20047;-86
2023/09/26 02:37:48;;;;;;;9.10;6.87;;;;;;;8.96;100.00;101823.06;5067598;28;20035;-88
2023/09/26 02:40:14;;;;;;;10.25;8.15;;;;;;;8.92;100.00;101816.28;5075951;28;20032;-86
2023/09/26 02:42:43;;;;;;;9.00;6.60;;;;;;;8.89;100.00;101806.75;5065349;28;20035;-87
2023/09/26 02:45:09;;;;;;;9.13;6.47;;;;;;;8.88;100.00;101797.06;5057974;28;20029;-86
2023/09/26 02:47:34;;;;;;;10.82;6.38;;;;;;;8.92;100.00;101808.31;5085747;28;20126;-87
2023/09/26 02:50:00;;;;;;;12.67;8.17;;;;;;;8.98;100.00;101805.16;5066340;28;20047;-85
2023/09/26 02:52:25;;;;;;;15.40;9.40;;;;;;;9.01;100.00;101820.88;5060378;28;20082;-86
2023/09/26 02:54:51;;;;;;;13.27;8.70;;;;;;;9.03;100.00;101825.09;5090565;28;20036;-86
2023/09/26 02:57:20;;;;;;;9.90;7.72;;;;;;;9.07;100.00;101837.19;5088809;28;20040;-86
2023/09/26 02:59:46;;;;;;;12.73;8.70;;;;;;;9.03;100.00;101821.59;5067945;28;20027;-86
2023/09/26 03:02:11;;;;;;;10.60;8.23;;;;;;;9.16;100.00;101840.94;5065604;28;20473;-86
2023/09/26 03:04:37;;;;;;;10.90;8.17;;;;;;;9.27;100.00;101842.69;5089357;28;20040;-86
2023/09/26 03:07:03;;;;;;;14.75;9.15;;;;;;;9.28;100.00;101836.41;5086347;28;20059;-87
2023/09/26 03:09:28;;;;;;;12.45;8.75;;;;;;;9.38;100.00;101847.16;5079342;28;20028;-86
2023/09/26 03:11:57;;;;;;;12.70;7.90;;;;;;;9.45;100.00;101853.66;5067818;28;20036;-87
2023/09/26 03:14:23;;;;;;;9.90;7.57;;;;;;;9.38;100.00;101847.16;5082482;28;20040;-86
2023/09/26 03:16:48;;;;;;;10.07;8.68;;;;;;;9.20;100.00;101826.41;5062106;28;20028;-88
2023/09/26 03:19:16;;;;;;;11.23;7.73;;;;;;;9.18;100.00;101828.34;5060592;28;20294;-87
2023/09/26 03:21:42;;;;;;;10.95;8.45;;;;;;;9.12;100.00;101830.66;5079612;28;20039;-86
2023/09/26 03:24:08;;;;;;;11.70;7.95;;;;;;;9.03;100.00;101817.09;5060729;28;20020;-86
2023/09/26 03:26:33;;;;;;;8.88;7.47;;;;;;;9.12;100.00;101831.50;5069437;28;20298;-85
2023/09/26 03:28:59;;;;;;;11.83;8.57;;;;;;;9.13;100.00;101827.88;5071919;28;20036;-87
2023/09/26 03:31:24;;;;;;;10.55;8.15;;;;;;;9.05;100.00;101817.00;5066382;28;20029;-85
2023/09/26 03:33:50;;;;;;;10.80;8.70;;;;;;;9.04;100.00;101821.47;5089943;28;20031;-86
2023/09/26 03:36:17;;;;;;;11.27;8.13;;;;;;;8.97;100.00;101809.63;5080287;28;20028;-87
2023/09/26 03:38:42;;;;;;;9.88;7.32;;;;;;;8.87;100.00;101790.03;5069343;28;20032;-85
2023/09/26 03:41:08;;;;;;;10.67;8.87;;;;;;;8.93;100.00;101802.88;5068074;28;20024;-87
2023/09/26 03:43:34;;;;;;;12.82;8.95;;;;;;;8.96;100.00;101809.75;5079983;28;20624;-86
2023/09/26 03:46:07;;;;;;;10.60;7.90;;;;;;;8.84;100.00;101796.47;5079049;28;20024;-87
2023/09/26 03:48:33;;;;;;;11.35;7.45;;;;;;;8.78;100.00;101786.34;5080519;28;20099;-87
2023/09/26 03:51:12;;;;;;;9.05;7.40;;;;;;;8.79;100.00;101782.69;5080198;28;20036;-88
2023/09/26 03:53:38;;;;;;;11.18;7.57;;;;;;;8.77;100.00;101776.63;5101698;28;20043;-87
2023/09/26 03:56:04;;;;;;;11.63;8.88;;;;;;;8.71;100.00;101773.63;5063437;28;20032;-87
2023/09/26 03:58:30;;;;;;;10.75;8.07;;;;;;;8.69;100.00;101762.28;5078047;28;20039;-87
2023/09/26 04:00:56;;;;;;;14.30;8.82;;;;;;;8.68;100.00;101765.91;5081306;28;20070;-86
2023/09/26 04:03:22;;;;;;;10.43;8.33;;;;;;;8.69;100.00;101779.09;5084212;28;20024;-87
2023/09/26 04:05:56;;;;;;;12.68;8.50;;;;;;;8.70;100.00;101772.78;5080993;28;20083;-87
2023/09/26 04:08:21;;;;;;;10.73;7.25;;;;;;;8.65;100.00;101756.34;5068255;28;20489;-87
2023/09/26 04:10:46;;;;;;;12.27;8.17;;;;;;;8.56;100.00;101749.13;5061347;28;20063;-88
2023/09/26 04:13:12;;;;;;;11.47;8.33;;;;;;;8.63;100.00;101752.97;5072456;28;20043;-88
2023/09/26 04:15:40;;;;;;;10.93;7.90;;;;;;;8.70;100.00;101772.78;5070664;28;20033;-87
2023/09/26 04:18:06;;;;;;;12.07;8.82;;;;;;;8.64;100.00;101754.66;5071914;28;20078;-86
2023/09/26 04:20:34;;;;;;;11.50;8.23;;;;;;;8.76;100.00;101774.97;5074332;28;20037;-87
2023/09/26 04:22:59;;;;;;;16.65;8.88;;;;;;;8.81;100.00;101786.06;5076863;28;20146;-84
2023/09/26 04:25:27;;;;;;;17.97;11.20;;;;;;;9.01;100.00;101808.44;5056305;28;20062;-85
2023/09/26 04:27:53;;;;;;;14.23;10.15;;;;;;;9.07;100.00;101809.72;5057060;28;20028;-87
2023/09/26 04:30:18;;;;;;;14.63;10.87;;;;;;;9.14;100.00;101813.56;5063134;28;20724;-87
2023/09/26 04:32:44;;;;;;;15.65;10.63;;;;;;;9.12;100.00;101806.69;5052484;28;20047;-86
2023/09/26 04:35:09;;;;;;;17.93;11.53;;;;;;;9.36;100.00;101825.94;5075220;28;20028;-85
2023/09/26 04:37:35;;;;;;;15.40;12.07;;;;;;;9.51;100.00;101840.66;5068760;28;20510;-87
2023/09/26 04:40:00;;;;;;;20.67;13.02;;;;;;;9.93;100.00;101858.50;5077322;28;20324;-87
2023/09/26 04:42:25;;;;;;;19.70;13.97;;;;;;;10.09;100.00;101845.53;5061511;28;20043;-88
2023/09/26 04:44:51;;;;;;;19.97;14.20;;;;;;;10.17;100.00;101844.03;5076500;28;20035;-88
2023/09/26 04:47:20;;;;;;;18.33;13.93;;;;;;;10.26;100.00;101843.22;5057358;28;20028;-87
2023/09/26 04:49:45;;;;;;;17.58;12.68;;;;;;;10.32;100.00;101837.38;5076471;28;20497;-87
2023/09/26 04:52:11;;;;;;;17.93;12.00;;;;;;;10.38;100.00;101833.31;5075288;28;20028;-87
2023/09/26 04:54:36;;;;;;;16.83;11.70;;;;;;;10.35;100.00;101818.44;5060130;28;20486;-87
2023/09/26 04:57:01;;;;;;;20.33;11.80;;;;;;;10.39;100.00;101824.31;5093656;28;20527;-86
2023/09/26 04:59:27;;;;;;;22.03;13.30;;;;;;;10.30;100.00;101805.47;5063817;28;20120;-87
2023/09/26 05:01:52;;;;;;;22.20;14.73;;;;;;;10.25;100.00;101806.81;5062221;28;20397;-86
2023/09/26 05:04:18;;;;;;;16.57;11.80;;;;;;;10.17;100.00;101787.97;5076140;28;20062;-88
2023/09/26 05:06:43;;;;;;;16.67;12.40;;;;;;;10.09;100.00;101785.97;5086115;28;20032;-86
2023/09/26 05:09:08;;;;;;;20.33;13.17;;;;;;;10.07;100.00;101786.13;5077983;28;20023;-87
2023/09/26 05:11:34;;;;;;;18.83;14.33;;;;;;;10.03;100.00;101784.69;5079142;28;20040;-87
2023/09/26 05:14:00;;;;;;;17.63;12.57;;;;;;;9.95;100.00;101773.84;5052738;28;20028;-86
2023/09/26 05:16:25;;;;;;;14.40;12.02;;;;;;;9.95;100.00;101771.19;5060241;28;20666;-87
2023/09/26 05:18:51;;;;;;;19.15;12.02;;;;;;;9.91;100.00;101773.25;5058026;28;20031;-87
2023/09/26 05:21:17;;;;;;;19.88;12.57;;;;;;;9.95;100.00;101789.84;5059263;28;20027;-87
2023/09/26 05:23:42;;;;;;;16.23;12.32;;;;;;;9.86;100.00;101783.47;5061958;28;20035;-88
2023/09/26 05:26:10;;;;;;;16.00;12.00;;;;;;;9.87;100.00;101781.66;5056517;28;20079;-86
2023/09/26 05:28:36;;;;;;;31.52;18.85;;;;;;;9.78;100.00;101785.13;5061866;28;20129;-87
2023/09/26 05:31:01;;;;;;;21.77;15.02;;;;;;;9.78;100.00;101782.44;5066767;28;20040;-86
2023/09/26 05:33:30;;;;;;;24.00;15.98;;;;;;;9.76;100.00;101777.22;5066146;28;20040;-87
2023/09/26 05:35:55;;;;;;;21.60;13.73;;;;;;;9.86;100.00;101795.97;5056155;28;20016;-88
2023/09/26 05:38:21;;;;;;;16.57;12.00;;;;;;;9.91;100.00;101788.44;5075348;28;20036;-85
2023/09/26 05:40:47;;;;;;;19.60;11.75;;;;;;;9.96;100.00;101796.88;5078894;28;20028;-88
2023/09/26 05:43:13;;;;;;;16.10;11.40;;;;;;;10.02;100.00;101793.69;5062571;28;20020;-88
2023/09/26 05:45:38;;;;;;;16.60;11.90;;;;;;;10.09;100.00;101796.63;5070472;28;20410;-88
2023/09/26 05:48:04;;;;;;;23.83;15.53;;;;;;;10.01;100.00;101783.97;5076783;28;20159;-88
2023/09/26 05:50:30;;;;;;;30.60;19.70;;;;;;;10.05;100.00;101785.41;5058562;28;20024;-89
2023/09/26 05:52:55;;;;;;;20.80;13.90;;;;;;;10.04;100.00;101786.34;5056808;28;20044;-89
2023/09/26 05:55:21;;;;;;;18.20;11.57;;;;;;;10.08;100.00;101790.47;5072973;28;20032;-88
2023/09/26 05:57:48;;;;;;;18.13;12.70;;;;;;;10.11;100.00;101784.00;5074256;28;20028;-89
2023/09/26 06:00:15;;;;;;;15.95;12.02;;;;;;;10.18;100.00;101789.66;5065574;28;20023;-89
2023/09/26 06:02:41;;;;;;;18.67;14.10;;;;;;;10.35;100.00;101810.41;5063461;28;20025;-89
2023/09/26 06:05:07;;;;;;;18.50;12.23;;;;;;;10.49;100.00;101823.41;5060019;28;20032;-88
2023/09/26 06:07:33;;;;;;;17.35;13.82;;;;;;;10.74;100.00;101845.22;5060939;28;20058;-88
2023/09/26 06:09:58;;;;;;;17.00;12.60;;;;;;;10.92;100.00;101837.41;5083546;28;20042;-86
2023/09/26 06:12:24;;;;;;;16.10;11.38;;;;;;;11.10;100.00;101825.06;5057354;28;20244;-86
2023/09/26 06:14:49;;;;;;;16.58;12.75;;;;;;;11.24;100.00;101826.47;5061453;28;20691;-87
2023/09/26 06:17:15;;;;;;;16.30;11.90;;;;;;;11.41;100.00;101816.91;5076862;28;20036;-86
2023/09/26 06:19:45;;;;;;;15.37;11.23;;;;;;;11.60;100.00;101819.53;5059191;28;20032;-86
2023/09/26 06:22:10;;;;;;;15.35;12.35;;;;;;;11.86;100.00;101804.72;5058863;28;20398;-86
2023/09/26 06:24:36;;;;;;;18.70;11.67;;;;;;;12.27;100.00;101802.59;5064523;28;20028;-86
2023/09/26 06:27:01;;;;;;;14.13;10.07;;;;;;;13.30;100.00;101798.75;5062613;28;20054;-86
2023/09/26 06:29:26;;;;;;;13.77;9.57;;;;;;;13.76;100.00;101769.03;5076621;28;20513;-86
2023/09/26 06:31:52;;;;;;;12.83;9.43;;;;;;;13.93;100.00;101698.34;5064957;28;20085;-86
2023/09/26 06:34:17;;;;;;;11.20;8.63;;;;;;;14.26;100.00;101693.94;5057644;28;20033;-87
2023/09/26 06:36:44;;;;;;;12.87;9.00;;;;;;;14.18;100.00;101591.00;5069485;28;20040;-87
2023/09/26 06:39:11;;;;;;;11.63;9.07;;;;;;;14.58;100.00;101549.91;5056984;28;20043;-87
2023/09/26 06:41:37;;;;;;;15.13;10.07;;;;;;;14.33;100.00;101474.69;5056545;28;20390;-86
2023/09/26 06:44:03;;;;;;;10.30;7.55;;;;;;;13.70;100.00;101451.19;5057293;28;20043;-86
2023/09/26 06:46:28;;;;;;;12.38;9.45;;;;;;;12.95;100.00;101478.75;5065235;28;20036;-84
2023/09/26 06:48:55;;;;;;;14.95;10.48;;;;;;;12.97;100.00;101558.97;5072411;28;20106;-86
2023/09/26 06:51:20;;;;;;;14.10;9.65;;;;;;;13.17;100.00;101605.19;5074406;28;20039;-87
2023/09/26 06:53:48;;;;;;;10.13;8.30;;;;;;;13.56;100.00;101627.06;5078248;28;20028;-89
2023/09/26 06:56:13;;;;;;;11.63;9.73;;;;;;;13.30;100.00;101563.56;5053448;28;20115;-88
2023/09/26 06:58:39;;;;;;;11.57;8.53;;;;;;;13.69;100.00;101637.34;5090434;28;20064;-88
2023/09/26 07:01:12;;;;;;;11.93;9.68;;;;;;;13.71;100.00;101568.25;5067528;28;20032;-89
2023/09/26 07:03:38;;;;;;;15.00;8.60;;;;;;;13.40;100.00;101560.75;5074548;28;20097;-86
2023/09/26 07:06:10;;;;;;;12.13;8.63;;;;;;;13.50;100.00;101571.34;5061585;28;20020;-86
2023/09/26 07:08:36;;;;;;;11.30;9.27;;;;;;;13.62;100.00;101586.16;5062084;28;20077;-86
2023/09/26 07:11:07;;;;;;;9.13;7.65;;;;;;;13.72;100.00;101581.50;5052526;28;20079;-89
2023/09/26 07:13:36;;;;;;;13.95;9.18;;;;;;;13.80;100.00;101596.78;5055501;28;20127;-89
2023/09/26 07:16:03;;;;;;;9.43;6.53;;;;;;;14.03;100.00;101604.25;5070603;28;20029;-88
2023/09/26 07:18:33;;;;;;;9.30;8.18;;;;;;;14.23;100.00;101581.44;5051130;28;20145;-86
2023/09/26 07:21:00;;;;;;;8.75;7.78;;;;;;;14.49;100.00;101578.63;5053733;28;20036;-86
2023/09/26 07:23:26;;;;;;;14.77;8.50;;;;;;;14.86;100.00;101579.13;5060045;28;20198;-86
2023/09/26 07:25:52;;;;;;;9.25;7.22;;;;;;;15.59;100.00;101619.28;5070797;28;20027;-86
2023/09/26 07:28:18;;;;;;;11.98;7.30;;;;;;;16.09;100.00;101500.56;5070374;28;20037;-86
2023/09/26 07:30:47;;;;;;;7.63;6.80;;;;;;;16.29;100.00;101334.66;5072723;28;20140;-87
2023/09/26 07:33:13;;;;;;;9.35;7.97;;;;;;;15.98;100.00;101225.25;5069201;28;20064;-86
2023/09/26 07:35:38;;;;;;;11.50;6.53;;;;;;;16.19;100.00;101234.44;5058090;28;20136;-86
2023/09/26 07:38:04;;;;;;;9.52;6.75;;;;;;;16.28;100.00;101198.28;5069104;28;20035;-87
2023/09/26 07:40:29;;;;;;;9.07;7.70;;;;;;;15.82;100.00;101085.44;5083325;28;20092;-86
2023/09/26 07:42:54;;;;;;;11.40;7.53;;;;;;;15.83;100.00;101168.72;5071228;28;20024;-87
2023/09/26 07:45:20;;;;;;;7.43;6.30;;;;;;;16.14;100.00;101237.69;5050549;28;20033;-87
2023/09/26 07:47:45;;;;;;;8.03;6.43;;;;;;;16.59;100.00;101286.13;5070868;28;20466;-86
2023/09/26 07:50:10;;;;;;;7.67;5.97;;;;;;;16.93;100.00;101176.78;5073363;28;20032;-86
2023/09/26 07:52:37;;;;;;;8.20;6.13;;;;;;;17.20;100.00;101170.59;5076801;28;20030;-86
2023/09/26 07:55:02;;;;;;;7.72;6.75;;;;;;;17.57;100.00;101057.06;5058587;28;20025;-86
2023/09/26 07:57:28;;;;;;;5.82;5.22;;;;;;;18.41;100.00;101035.06;5068486;28;20032;-87
2023/09/26 07:59:54;;;;;;;8.73;5.93;;;;;;;18.86;100.00;100920.84;5060503;28;20291;-86
2023/09/26 08:02:20;;;;;;;6.43;4.53;;;;;;;19.08;100.00;100810.44;5074807;28;20456;-87
2023/09/26 08:04:45;;;;;;;7.97;6.07;;;;;;;19.22;100.00;100610.91;5052044;28;20663;-86
2023/09/26 08:07:12;;;;;;;9.47;6.30;;;;;;;18.81;100.00;100447.34;5051766;28;20016;-86
2023/09/26 08:09:38;;;;;;;5.97;5.38;;;;;;;19.48;100.00;100556.53;5084948;28;20115;-86
2023/09/26 08:12:03;;;;;;;10.48;5.18;;;;;;;19.50;100.00;100570.66;5050394;28;20111;-86
2023/09/26 08:14:29;;;;;;;6.28;5.55;;;;;;;20.26;100.00;100432.91;5051926;28;20032;-87
2023/09/26 08:16:54;;;;;;;8.60;4.83;;;;;;;20.82;100.00;100219.09;5050404;28;20483;-87
2023/09/26 08:19:20;;;;;;;4.73;4.23;;;;;;;21.28;100.00;99994.56;5050045;28;20393;-86
2023/09/26 08:21:45;;;;;;;6.93;4.30;;;;;;;21.92;94.67;99874.47;5068545;28;20082;-87
2023/09/26 08:24:10;;;;;;;5.43;4.40;;;;;;;20.44;91.69;99518.38;5070702;28;20046;-86
2023/09/26 08:26:36;;;;;;;7.53;3.90;;;;;;;21.28;93.40;100002.72;5061313;28;20109;-86
2023/09/26 08:29:01;;;;;;;5.27;4.47;;;;;;;21.65;92.06;100038.25;5043130;28;20032;-86
2023/09/26 08:31:27;;;;;;;5.37;3.77;;;;;;;21.39;89.68;99855.16;5074508;28;20032;-87
2023/09/26 08:33:53;;;;;;;6.40;3.53;;;;;;;22.61;87.26;99957.13;5070046;28;20081;-86
2023/09/26 08:36:20;;;;;;;6.80;3.92;;;;;;;23.14;82.93;99795.50;5073905;28;20154;-87
2023/09/26 08:38:50;;;;;;;6.53;3.70;;;;;;;22.58;80.07;99430.78;5071422;28;20036;-87
2023/09/26 08:41:17;;;;;;;5.15;3.75;;;;;;;21.91;83.20;99694.31;5058557;28;20490;-86
2023/09/26 08:43:43;;;;;;;5.70;4.30;;;;;;;20.62;87.08;99927.47;5056293;28;20183;-87
2023/09/26 08:46:09;;;;;;;8.77;4.45;;;;;;;21.15;84.45;99826.69;5071393;28;20108;-86
2023/09/26 08:48:38;;;;;;;5.57;4.25;;;;;;;20.98;83.91;99796.94;5082752;28;20037;-86
2023/09/26 08:51:04;;;;;;;8.35;4.43;;;;;;;22.25;86.10;100360.06;5054628;28;20105;-86
2023/09/26 08:53:29;;;;;;;6.15;3.67;;;;;;;23.24;83.74;100316.69;5054682;28;20581;-88
2023/09/26 08:55:55;;;;;;;4.18;3.53;;;;;;;22.82;81.80;100066.94;5055739;28;20444;-87
2023/09/26 08:58:21;;;;;;;7.83;4.37;;;;;;;23.20;80.58;100040.53;5072356;28;20627;-87
2023/09/26 09:00:50;;;;;;;5.43;4.53;;;;;;;23.64;79.81;100100.97;5054225;28;20278;-86
2023/09/26 09:03:16;;;;;;;6.80;4.30;;;;;;;23.93;79.66;100164.13;5052798;28;20028;-87
2023/09/26 09:05:42;;;;;;;6.15;4.30;;;;;;;24.45;77.81;100116.03;5061327;28;20027;-86
2023/09/26 09:08:08;;;;;;;7.53;4.38;;;;;;;24.39;75.01;99838.84;5070837;28;20095;-87
2023/09/26 09:10:54;;;;;;;4.70;3.53;;;;;;;24.64;74.73;99938.97;5071010;28;20115;-87
2023/09/26 09:13:40;;;;;;;5.13;4.22;;;;;;;24.89;72.02;99737.97;5075179;28;20121;-88
2023/09/26 09:16:13;;;;;;;4.75;3.50;;;;;;;23.89;71.87;99525.19;5057683;28;20028;-88
2023/09/26 09:18:42;;;;;;;7.18;3.83;;;;;;;24.24;72.67;99744.25;5064109;28;20079;-87
2023/09/26 09:21:21;;;;;;;4.07;3.70;;;;;;;23.79;72.62;99659.59;5055943;28;20047;-87
2023/09/26 09:23:47;;;;;;;4.53;3.10;;;;;;;24.01;74.04;99901.88;5068158;28;20040;-87
2023/09/26 09:26:12;;;;;;;7.60;4.28;;;;;;;23.97;72.52;99715.41;5074827;28;20033;-88
2023/09/26 09:28:38;;;;;;;5.90;3.08;;;;;;;24.96;72.19;100015.09;5062019;28;20036;-88
2023/09/26 09:31:03;;;;;;;4.97;3.28;;;;;;;25.62;69.96;99899.28;5092580;28;20144;-87
2023/09/26 09:33:30;;;;;;;4.53;2.75;;;;;;;26.18;67.51;99802.34;5060138;28;20040;-88
2023/09/26 09:35:55;;;;;;;6.88;3.60;;;;;;;26.22;64.40;99334.81;5053099;28;20024;-87
2023/09/26 09:38:21;;;;;;;4.53;3.58;;;;;;;24.40;66.71;99167.59;5053415;28;20033;-87
2023/09/26 09:40:46;;;;;;;4.10;3.07;;;;;;;25.06;69.59;99880.44;5075775;28;20040;-87
2023/09/26 09:43:12;;;;;;;14.00;3.03;;;;;;;25.23;68.49;99798.16;5054435;28;20267;-87
2023/09/26 09:45:41;;;;;;;3.22;2.92;;;;;;;26.08;66.39;99773.19;5069455;28;20036;-87
2023/09/26 09:48:09;;;;;;;3.78;3.03;;;;;;;25.99;65.96;99697.50;5086814;28;20133;-86
2023/09/26 09:50:38;;;;;;;4.65;2.88;;;;;;;26.19;64.33;99522.22;5056508;28;20349;-88
2023/09/26 09:53:04;;;;;;;3.20;2.33;;;;;;;26.89;63.93;99710.34;5050075;28;20554;-86
2023/09/26 09:55:37;;;;;;;3.45;3.13;;;;;;;25.92;60.69;98844.91;5076187;28;20044;-89
2023/09/26 09:58:08;;;;;;;3.22;2.40;;;;;;;24.14;62.09;98577.44;5081601;28;20085;-87
2023/09/26 10:00:36;;;;;;;3.13;2.40;;;;;;;23.86;61.61;98563.84;5080466;28;20446;-86
2023/09/26 10:03:05;;;;;;;3.60;2.88;;;;;;;25.09;62.87;99322.81;5079488;28;20052;-87
2023/09/26 10:05:31;;;;;;;5.07;2.30;;;;;;;24.66;62.08;98929.09;5086080;28;20383;-87
2023/09/26 10:07:57;;;;;;;;;;;;;;;22.64;61.87;98205.03;5053834;28;20401;-86
2023/09/26 10:10:24;;;;;;;3.35;2.00;;;;;;;22.93;62.93;98697.94;5086752;28;19908;-86
2023/09/26 10:12:51;;;;;;;4.32;2.38;;;;;;;23.18;64.47;99064.28;5085983;28;20043;-86
2023/09/26 10:15:16;;;;;;;4.38;2.33;;;;;;;24.22;61.72;99011.03;5086171;28;20044;-86
2023/09/26 10:17:45;;;;;;;2.67;1.83;;;;;;;23.32;61.90;98754.03;5077325;28;20059;-86
2023/09/26 10:20:14;;;;;;;4.78;2.38;;;;;;;22.23;62.77;98456.66;5061015;28;20113;-86
2023/09/26 10:22:43;;;;;;;8.02;2.40;;;;;;;22.98;63.71;98958.28;5086007;28;20127;-87
2023/09/26 10:25:19;;;;;;;4.75;2.30;;;;;;;22.45;64.52;98882.09;5062198;28;20032;-87
2023/09/26 10:27:50;;;;;;;5.78;2.10;;;;;;;22.23;65.89;99051.09;5056985;28;20039;-87
2023/09/26 10:30:18;;;;;;;6.95;2.72;;;;;;;22.93;65.46;99241.34;5080648;28;20398;-87
2023/09/26 10:32:44;;;;;;;3.83;2.40;;;;;;;22.64;65.91;99203.13;5058726;28;20093;-86
2023/09/26 10:35:12;;;;;;;5.55;2.47;;;;;;;22.48;65.92;99167.84;5074984;28;20060;-87
2023/09/26 10:37:38;;;;;;;5.70;3.10;;;;;;;22.68;65.96;99234.91;5082699;28;20461;-86
2023/09/26 10:40:03;;;;;;;3.77;2.63;;;;;;;23.56;65.41;99456.66;5069077;28;20048;-85
2023/09/26 10:42:29;;;;;;;5.25;2.50;;;;;;;23.33;65.31;99305.63;5077851;28;20103;-87
2023/09/26 10:44:54;;;;;;;6.00;3.60;;;;;;;22.82;64.41;98989.47;5060165;28;20482;-87
2023/09/26 10:47:23;;;;;;;5.03;2.77;;;;;;;23.48;64.91;99348.28;5083514;28;20241;-87
2023/09/26 10:49:49;;;;;;;4.30;2.75;;;;;;;23.60;63.20;99110.97;5061103;28;20600;-87
2023/09/26 10:52:15;;;;;;;6.85;3.65;;;;;;;22.77;64.63;99048.25;5054054;28;20060;-87
2023/09/26 10:54:41;;;;;;;9.52;3.65;;;;;;;22.24;64.92;98909.47;5059800;28;20067;-87
2023/09/26 10:57:08;;;;;;;4.65;3.50;;;;;;;23.30;65.32;99384.38;5062256;28;20119;-88
2023/09/26 10:59:34;;;;;;;6.05;2.65;;;;;;;23.21;63.52;99037.56;5085686;28;20044;-87
2023/09/26 11:02:03;;;;;;;;;;;;;;;23.78;63.36;99289.28;5085435;28;20028;-87
2023/09/26 11:04:31;;;;;;;6.55;2.80;;;;;;;23.33;63.06;99021.66;5068709;28;19923;-87
2023/09/26 11:06:57;;;;;;;5.38;2.72;;;;;;;22.76;63.94;98964.22;5065116;28;20076;-87
2023/09/26 11:09:24;;;;;;;7.13;2.80;;;;;;;22.65;64.41;99031.50;5066904;28;20035;-87
2023/09/26 11:11:50;;;;;;;7.00;3.30;;;;;;;21.54;65.09;98719.56;5075096;28;20438;-87
2023/09/26 11:14:16;;;;;;;4.63;3.40;;;;;;;22.73;63.99;99065.41;5075167;28;20044;-86
2023/09/26 11:16:42;;;;;;;3.75;2.30;;;;;;;23.99;63.27;99420.75;5071267;28;20094;-87